Time;durP1;ratioP1;P1;durP2;ratioP2;P2;SDS_P1;SDS_P2;PMS_P1;PMS_P2;Temp;Humidity;BMP_temperature;BMP_pressure;BME280_temperature;BME280_humidity;BME280_pressure;Samples;Min_cycle;Max_cycle;Signal;HPM_P1;HPM_P2
2021/01/17 00:01:53;;;;;;;63.88;32.17;;;1.30;70.50;;;;;;5005315;28;86499;-78
2021/01/17 00:04:19;;;;;;;54.50;30.45;;;1.30;70.60;;;;;;4991506;28;84305;-78
2021/01/17 00:06:45;;;;;;;57.40;28.92;;;1.40;70.50;;;;;;5009712;28;83416;-78
2021/01/17 00:09:13;;;;;;;53.88;28.17;;;1.30;70.50;;;;;;5007893;28;82371;-78
2021/01/17 00:12:04;;;;;;;54.13;27.70;;;1.30;70.40;;;;;;5006068;28;84165;-76
2021/01/17 00:14:32;;;;;;;52.58;28.90;;;1.40;70.30;;;;;;5003061;28;82561;-78
2021/01/17 00:17:01;;;;;;;51.13;27.77;;;1.30;70.30;;;;;;5001796;28;83875;-77
2021/01/17 00:19:31;;;;;;;55.58;29.88;;;1.20;70.20;;;;;;4999399;28;82778;-77
2021/01/17 00:22:05;;;;;;;52.05;26.50;;;1.20;70.10;;;;;;5021365;28;82510;-77
2021/01/17 00:24:35;;;;;;;59.00;28.60;;;1.20;70.20;;;;;;5001864;28;83360;-76
2021/01/17 00:27:01;;;;;;;53.47;28.50;;;1.20;70.20;;;;;;5000736;28;82571;-78
2021/01/17 00:29:51;;;;;;;53.58;27.63;;;1.20;70.10;;;;;;5019558;28;82245;-78
2021/01/17 00:32:17;;;;;;;47.63;26.38;;;1.20;70.20;;;;;;4972709;28;82670;-78
2021/01/17 00:34:48;;;;;;;51.55;26.63;;;1.00;70.00;;;;;;4985594;28;83086;-77
2021/01/17 00:37:43;;;;;;;49.75;26.05;;;1.10;70.10;;;;;;5002241;28;82851;-77
2021/01/17 00:40:45;;;;;;;48.15;25.15;;;1.10;70.00;;;;;;5005019;28;82764;-77
2021/01/17 00:43:14;;;;;;;52.55;25.15;;;1.00;70.10;;;;;;5039681;22;83624;-77
2021/01/17 00:45:52;;;;;;;47.13;25.27;;;0.90;70.00;;;;;;5044659;28;82598;-78
2021/01/17 00:48:21;;;;;;;49.65;26.33;;;0.90;70.00;;;;;;5030685;28;84535;-77
2021/01/17 00:51:03;;;;;;;49.53;24.98;;;0.90;70.00;;;;;;5047655;28;82262;-76
2021/01/17 00:53:30;;;;;;;49.07;26.70;;;0.90;70.00;;;;;;5031186;28;83620;-79
2021/01/17 00:56:34;;;;;;;50.92;26.05;;;0.90;70.10;;;;;;5020413;28;82307;-77
2021/01/17 00:59:36;;;;;;;57.92;27.40;;;1.00;70.00;;;;;;5049962;28;83743;-78
2021/01/17 01:02:13;;;;;;;51.72;26.40;;;1.00;70.10;;;;;;5017631;28;83040;-77
2021/01/17 01:04:42;;;;;;;53.40;26.60;;;0.90;70.30;;;;;;5035028;28;82385;-78
2021/01/17 01:07:08;;;;;;;57.70;27.58;;;0.90;70.40;;;;;;5044293;28;82288;-77
2021/01/17 01:09:33;;;;;;;57.22;29.27;;;0.90;70.40;;;;;;5041977;28;82545;-78
2021/01/17 01:12:00;;;;;;;48.35;26.63;;;0.90;70.50;;;;;;5056570;28;83459;-77
2021/01/17 01:14:26;;;;;;;55.90;27.13;;;0.90;70.50;;;;;;5036066;28;83815;-78
2021/01/17 01:16:53;;;;;;;50.97;27.95;;;0.90;70.30;;;;;;5036509;28;83119;-78
2021/01/17 01:19:20;;;;;;;54.55;28.58;;;0.90;70.30;;;;;;5037257;28;83801;-78
2021/01/17 01:21:47;;;;;;;56.17;27.88;;;0.90;70.40;;;;;;5038159;28;82586;-79
2021/01/17 01:24:13;;;;;;;48.60;27.92;;;0.90;70.40;;;;;;5038372;28;85922;-78
2021/01/17 01:26:44;;;;;;;53.17;27.73;;;0.90;70.10;;;;;;5040961;28;83193;-78
2021/01/17 01:29:11;;;;;;;53.20;28.33;;;0.80;70.10;;;;;;5037997;28;83821;-80
2021/01/17 01:31:39;;;;;;;61.65;28.98;;;0.80;70.10;;;;;;5056875;28;82938;-80
2021/01/17 01:34:05;;;;;;;50.63;27.25;;;0.70;70.10;;;;;;5036193;28;83932;-77
2021/01/17 01:36:35;;;;;;;54.15;27.75;;;0.70;70.00;;;;;;5036251;28;83461;-77
2021/01/17 01:39:04;;;;;;;51.65;26.85;;;0.70;70.00;;;;;;5038274;28;83540;-76
2021/01/17 01:41:32;;;;;;;49.60;27.10;;;0.70;69.90;;;;;;5036144;28;83270;-76
2021/01/17 01:43:58;;;;;;;60.92;29.30;;;0.70;69.80;;;;;;5035970;28;84766;-76
2021/01/17 01:46:26;;;;;;;51.55;27.05;;;0.60;69.80;;;;;;5037497;28;83972;-76
2021/01/17 01:48:54;;;;;;;57.70;29.15;;;0.60;70.00;;;;;;5019320;28;83830;-77
2021/01/17 01:51:25;;;;;;;54.70;26.65;;;0.60;70.20;;;;;;5033901;28;84222;-76
2021/01/17 01:53:54;;;;;;;49.88;26.98;;;0.60;70.20;;;;;;5030731;28;83574;-77
2021/01/17 01:56:22;;;;;;;48.17;27.05;;;0.60;70.20;;;;;;5033550;28;83041;-77
2021/01/17 01:58:47;;;;;;;51.95;27.85;;;0.60;70.10;;;;;;5032311;28;83655;-79
2021/01/17 02:01:13;;;;;;;46.67;26.20;;;0.50;70.00;;;;;;5034041;28;83132;-79
2021/01/17 02:03:46;;;;;;;50.20;27.50;;;0.60;70.10;;;;;;5033906;28;83621;-79
2021/01/17 02:06:12;;;;;;;48.53;26.63;;;0.50;70.20;;;;;;5032839;28;82788;-79
2021/01/17 02:08:47;;;;;;;53.00;27.00;;;0.50;70.20;;;;;;5031225;28;82633;-77
2021/01/17 02:11:34;;;;;;;46.60;26.38;;;0.50;70.20;;;;;;5035066;28;82735;-78
2021/01/17 02:14:19;;;;;;;48.17;27.20;;;0.40;70.10;;;;;;5037987;28;85704;-81
2021/01/17 02:16:47;;;;;;;54.70;27.08;;;0.40;70.10;;;;;;5036783;28;82431;-78
2021/01/17 02:19:15;;;;;;;48.88;25.90;;;0.30;70.10;;;;;;5036591;28;83671;-78
2021/01/17 02:22:03;;;;;;;47.40;25.77;;;0.30;70.10;;;;;;5058817;28;83046;-77
2021/01/17 02:25:02;;;;;;;45.22;25.10;;;0.30;70.00;;;;;;5062317;28;82704;-79
2021/01/17 02:27:30;;;;;;;55.20;29.20;;;0.20;70.00;;;;;;5051593;28;82591;-77
2021/01/17 02:29:58;;;;;;;56.38;28.20;;;0.20;69.80;;;;;;5030103;28;83966;-77
2021/01/17 02:32:30;;;;;;;51.17;26.80;;;0.10;69.80;;;;;;5029871;28;83219;-78
2021/01/17 02:34:56;;;;;;;50.58;27.25;;;0.10;69.90;;;;;;5014039;28;85321;-77
2021/01/17 02:37:33;;;;;;;46.50;26.27;;;0.10;70.00;;;;;;5030948;28;83011;-79
2021/01/17 02:40:13;;;;;;;54.90;27.80;;;0.10;69.90;;;;;;5032353;28;83505;-78
2021/01/17 02:42:41;;;;;;;49.20;27.40;;;0.10;69.70;;;;;;5031813;28;82585;-77
2021/01/17 02:45:08;;;;;;;53.17;26.77;;;0.10;69.60;;;;;;5032218;28;85371;-77
2021/01/17 02:47:33;;;;;;;53.70;25.42;;;0.10;69.70;;;;;;5015194;28;83128;-77
2021/01/17 02:49:59;;;;;;;46.17;25.90;;;0.10;69.80;;;;;;5031461;28;85511;-78
2021/01/17 02:52:57;;;;;;;51.70;26.02;;;0.10;69.80;;;;;;5029836;28;83011;-78
2021/01/17 02:55:24;;;;;;;47.25;26.02;;;0.10;69.60;;;;;;5006024;28;82998;-78
2021/01/17 02:57:54;;;;;;;53.10;26.50;;;0.00;69.80;;;;;;5032348;28;82996;-78
2021/01/17 03:00:25;;;;;;;45.70;26.17;;;0.00;69.80;;;;;;5031241;28;83729;-77
2021/01/17 03:02:55;;;;;;;51.20;26.42;;;0.00;69.70;;;;;;5028397;28;85021;-77
2021/01/17 03:05:21;;;;;;;48.10;25.73;;;0.00;69.50;;;;;;5015036;28;83894;-77
2021/01/17 03:07:55;;;;;;;50.95;25.52;;;0.00;69.50;;;;;;5032077;28;83045;-77
2021/01/17 03:10:22;;;;;;;48.45;25.45;;;-3276.70;69.60;;;;;;5031410;28;82510;-77
2021/01/17 03:12:48;;;;;;;46.53;25.63;;;-3276.70;69.60;;;;;;5031831;28;83592;-77
2021/01/17 03:15:16;;;;;;;49.07;25.53;;;-3276.70;69.90;;;;;;5041697;28;85601;-77
2021/01/17 03:17:43;;;;;;;42.28;23.20;;;-3276.70;69.80;;;;;;5066576;28;82593;-80
2021/01/17 03:20:09;;;;;;;41.13;23.00;;;-3276.70;69.50;;;;;;5046906;28;82683;-81
2021/01/17 03:22:35;;;;;;;41.92;23.98;;;-3276.60;69.50;;;;;;5047332;28;83499;-80
2021/01/17 03:25:03;;;;;;;42.13;22.23;;;-3276.50;69.70;;;;;;5046105;28;82621;-81
2021/01/17 03:27:35;;;;;;;40.00;23.05;;;-3276.50;69.70;;;;;;5047222;28;82602;-80
2021/01/17 03:30:01;;;;;;;40.60;22.65;;;-3276.40;69.60;;;;;;5044723;28;82724;-79
2021/01/17 03:32:27;;;;;;;40.00;22.80;;;-3276.30;69.80;;;;;;5037812;28;83518;-78
2021/01/17 03:34:52;;;;;;;45.97;23.60;;;-3276.30;69.80;;;;;;5037409;28;85138;-79
2021/01/17 03:37:20;;;;;;;42.07;22.77;;;-3276.20;69.70;;;;;;5039388;28;83204;-78
2021/01/17 03:39:46;;;;;;;42.00;21.27;;;-3276.20;69.70;;;;;;5040131;28;82666;-79
2021/01/17 03:42:12;;;;;;;43.33;22.30;;;-3276.20;69.70;;;;;;5041349;28;83512;-79
2021/01/17 03:44:38;;;;;;;38.53;21.17;;;-3276.20;69.60;;;;;;5062152;28;82383;-78
2021/01/17 03:47:06;;;;;;;41.63;22.03;;;-3276.20;69.50;;;;;;5044693;28;83184;-76
2021/01/17 03:49:44;;;;;;;38.60;21.57;;;-3276.20;69.60;;;;;;5060626;28;82444;-76
2021/01/17 03:52:11;;;;;;;38.77;20.83;;;-3276.30;69.50;;;;;;5056260;28;83336;-77
2021/01/17 03:54:37;;;;;;;43.17;21.77;;;-3276.30;69.30;;;;;;5038844;28;83953;-76
2021/01/17 03:57:04;;;;;;;40.97;20.90;;;-3276.20;69.20;;;;;;5038787;28;85412;-77
2021/01/17 03:59:30;;;;;;;36.75;20.00;;;-3276.20;69.00;;;;;;5039004;28;82582;-76
2021/01/17 04:01:55;;;;;;;39.03;20.13;;;-3276.10;69.10;;;;;;5041135;28;83508;-78
2021/01/17 04:04:21;;;;;;;36.43;19.37;;;-3276.00;69.40;;;;;;5039297;28;82306;-78
2021/01/17 04:06:47;;;;;;;39.03;20.07;;;-3276.00;69.50;;;;;;5057426;28;82397;-78
2021/01/17 04:09:15;;;;;;;36.50;20.03;;;-3276.00;69.60;;;;;;5033967;28;84050;-77
2021/01/17 04:11:40;;;;;;;39.03;19.33;;;-3276.00;69.50;;;;;;5052188;28;83057;-78
2021/01/17 04:14:06;;;;;;;34.67;18.97;;;-3276.00;69.50;;;;;;5033464;28;82584;-78
2021/01/17 04:16:33;;;;;;;34.60;19.13;;;-3275.90;69.50;;;;;;5052600;27;82461;-77
2021/01/17 04:18:59;;;;;;;39.27;19.13;;;-3275.90;69.50;;;;;;5036069;28;83465;-77
2021/01/17 04:21:25;;;;;;;39.77;19.87;;;-3275.90;69.60;;;;;;5041369;28;84191;-80
2021/01/17 04:23:51;;;;;;;32.83;18.50;;;-3275.80;69.60;;;;;;5042987;28;82495;-79
2021/01/17 04:26:18;;;;;;;35.57;18.27;;;-3275.80;69.60;;;;;;5040675;28;82295;-80
2021/01/17 04:28:54;;;;;;;37.80;18.70;;;-3275.80;69.30;;;;;;5041599;28;83006;-78
2021/01/17 04:31:22;;;;;;;37.27;19.83;;;-3275.80;69.40;;;;;;5046389;28;83269;-77
2021/01/17 04:33:48;;;;;;;31.93;17.67;;;-3275.80;69.50;;;;;;5045962;28;82500;-79
2021/01/17 04:36:14;;;;;;;33.43;18.13;;;-3275.80;69.30;;;;;;5035224;28;83167;-78
2021/01/17 04:38:48;;;;;;;33.70;16.93;;;-3275.80;69.30;;;;;;5034788;28;83422;-78
2021/01/17 04:41:16;;;;;;;32.80;16.47;;;-3275.80;69.20;;;;;;5037780;28;83763;-79
2021/01/17 04:43:58;;;;;;;38.23;18.23;;;-3275.80;69.20;;;;;;5040264;28;83470;-79
2021/01/17 04:46:30;;;;;;;35.83;18.67;;;-3275.80;69.50;;;;;;5037726;28;82768;-77
2021/01/17 04:49:01;;;;;;;37.83;19.07;;;-3275.80;69.50;;;;;;5038966;28;84005;-78
2021/01/17 04:51:28;;;;;;;38.77;19.63;;;-3275.80;69.50;;;;;;5036225;28;82772;-77
2021/01/17 04:53:57;;;;;;;34.53;17.70;;;-3275.80;69.50;;;;;;5037300;28;82576;-78
2021/01/17 04:56:31;;;;;;;36.17;18.10;;;-3275.80;69.50;;;;;;5042974;28;83398;-78
2021/01/17 04:59:13;;;;;;;31.20;17.03;;;-3275.80;69.40;;;;;;5035338;28;83954;-78
2021/01/17 05:02:02;;;;;;;33.83;17.13;;;-3275.80;69.40;;;;;;5037437;28;83222;-80
2021/01/17 05:04:37;;;;;;;31.23;17.07;;;-3275.80;69.40;;;;;;5036412;28;83603;-78
2021/01/17 05:07:34;;;;;;;33.60;16.87;;;-3275.80;69.40;;;;;;5037277;28;82528;-80
2021/01/17 05:10:08;;;;;;;32.47;17.20;;;-3275.70;69.40;;;;;;5037832;28;85876;-77
2021/01/17 05:12:40;;;;;;;29.10;15.93;;;-3275.70;69.50;;;;;;5051295;28;82450;-78
2021/01/17 05:15:09;;;;;;;32.73;18.10;;;-3275.70;69.40;;;;;;5049232;28;82540;-78
2021/01/17 05:17:43;;;;;;;35.47;17.67;;;-3275.70;69.40;;;;;;5047136;28;82574;-76
2021/01/17 05:20:15;;;;;;;30.73;16.20;;;-3275.80;69.20;;;;;;5028800;28;84182;-76
2021/01/17 05:22:43;;;;;;;30.70;15.77;;;-3275.70;69.10;;;;;;5057756;28;82629;-78
2021/01/17 05:25:10;;;;;;;29.80;15.87;;;-3275.70;69.10;;;;;;5042609;28;83736;-80
2021/01/17 05:27:37;;;;;;;29.83;15.77;;;-3275.70;69.20;;;;;;5017747;28;85476;-77
2021/01/17 05:30:07;;;;;;;34.53;16.33;;;-3275.70;69.50;;;;;;5033222;28;83498;-78
2021/01/17 05:32:33;;;;;;;32.93;17.00;;;-3275.70;69.50;;;;;;5033934;28;83411;-78
2021/01/17 05:35:00;;;;;;;32.20;16.10;;;-3275.70;69.70;;;;;;5035725;28;82618;-80
2021/01/17 05:37:26;;;;;;;36.20;16.57;;;-3275.60;69.30;;;;;;5039632;28;83179;-80
2021/01/17 05:40:06;;;;;;;37.37;16.60;;;-3275.60;69.20;;;;;;5023050;28;83590;-78
2021/01/17 05:42:38;;;;;;;42.50;17.93;;;-3275.50;69.20;;;;;;5036662;28;83614;-78
2021/01/17 05:45:13;;;;;;;30.90;16.30;;;-3275.40;69.10;;;;;;5031367;28;83543;-78
2021/01/17 05:47:40;;;;;;;30.93;17.33;;;-3275.40;69.40;;;;;;5029369;28;83386;-78
2021/01/17 05:50:09;;;;;;;32.23;17.73;;;-3275.30;69.40;;;;;;5029756;28;83831;-78
2021/01/17 05:52:35;;;;;;;29.00;15.90;;;-3275.30;69.30;;;;;;5030101;28;83489;-78
2021/01/17 05:55:02;;;;;;;32.33;16.07;;;-3275.30;69.40;;;;;;5031065;28;83500;-78
2021/01/17 05:57:30;;;;;;;31.90;17.10;;;-3275.20;69.30;;;;;;5030535;28;83547;-78
2021/01/17 05:59:56;;;;;;;28.03;15.00;;;-3275.20;69.40;;;;;;5030246;28;84575;-78
2021/01/17 06:02:23;;;;;;;29.57;15.67;;;-3275.10;69.40;;;;;;5030590;28;84747;-79
2021/01/17 06:05:00;;;;;;;31.83;17.17;;;-3275.10;69.50;;;;;;5029810;28;83468;-78
2021/01/17 06:07:28;;;;;;;30.73;16.47;;;-3275.20;69.50;;;;;;5030033;28;86063;-79
2021/01/17 06:10:01;;;;;;;30.70;16.00;;;-3275.20;69.50;;;;;;5029551;28;83509;-78
2021/01/17 06:12:36;;;;;;;28.23;15.65;;;-3275.30;69.50;;;;;;5030766;28;83136;-79
2021/01/17 06:15:12;;;;;;;29.40;16.40;;;-3275.30;69.40;;;;;;5015269;28;85742;-78
2021/01/17 06:17:47;;;;;;;32.87;16.47;;;-3275.30;69.40;;;;;;5031600;28;83560;-79
2021/01/17 06:20:20;;;;;;;32.67;16.53;;;-3275.20;69.20;;;;;;5031925;28;85398;-79
2021/01/17 06:23:13;;;;;;;31.77;17.40;;;-3275.20;69.30;;;;;;5035109;28;85345;-79
2021/01/17 06:26:11;;;;;;;33.57;17.23;;;-3275.20;69.30;;;;;;5048456;28;83276;-79
2021/01/17 06:28:44;;;;;;;38.17;17.40;;;-3275.20;69.50;;;;;;5065797;28;82516;-77
2021/01/17 06:31:16;;;;;;;30.77;16.63;;;-3275.10;69.30;;;;;;5051114;28;82241;-78
2021/01/17 06:34:14;;;;;;;33.27;16.67;;;-3275.00;69.30;;;;;;5067272;28;82551;-77
2021/01/17 06:36:47;;;;;;;34.77;17.17;;;-3274.90;69.60;;;;;;5030482;28;82633;-76
2021/01/17 06:39:26;;;;;;;35.83;16.57;;;-3274.90;69.60;;;;;;5035884;28;83738;-78
2021/01/17 06:41:59;;;;;;;30.53;16.20;;;-3274.90;69.70;;;;;;5039831;28;83740;-75
2021/01/17 06:44:31;;;;;;;31.02;16.35;;;-3274.90;69.70;;;;;;5040167;28;84417;-75
2021/01/17 06:47:06;;;;;;;33.17;17.23;;;-3275.00;69.70;;;;;;5025957;28;82555;-77
2021/01/17 06:49:40;;;;;;;31.30;15.67;;;-3274.90;69.40;;;;;;5062323;28;82423;-78
2021/01/17 06:52:11;;;;;;;32.53;17.10;;;-3274.90;69.50;;;;;;5024539;28;83107;-79
2021/01/17 06:54:46;;;;;;;29.90;16.43;;;-3274.90;69.40;;;;;;5046639;28;82636;-78
2021/01/17 06:57:14;;;;;;;33.43;16.43;;;-3274.90;69.40;;;;;;5043152;28;82600;-79
2021/01/17 06:59:50;;;;;;;32.93;16.60;;;-3274.80;69.30;;;;;;5046964;28;85321;-78
2021/01/17 07:02:25;;;;;;;33.67;17.57;;;-3274.90;69.40;;;;;;5047095;28;82858;-77
2021/01/17 07:05:08;;;;;;;31.60;16.10;;;-3274.90;69.40;;;;;;5043974;28;82443;-76
2021/01/17 07:07:52;;;;;;;31.40;16.63;;;-3274.80;69.30;;;;;;5040097;28;82703;-76
2021/01/17 07:10:23;;;;;;;30.93;16.83;;;-3274.80;69.20;;;;;;5030272;28;82545;-77
2021/01/17 07:13:01;;;;;;;34.23;17.33;;;-3274.80;69.30;;;;;;5030370;28;82528;-80
2021/01/17 07:15:30;;;;;;;33.10;17.17;;;-3274.80;69.20;;;;;;5032418;28;83424;-80
2021/01/17 07:18:05;;;;;;;35.63;17.17;;;-3274.80;69.20;;;;;;5030645;28;83561;-79
2021/01/17 07:20:48;;;;;;;34.63;17.47;;;-3274.70;69.40;;;;;;5031160;28;83030;-78
2021/01/17 07:23:15;;;;;;;;;;;-3274.70;69.40;;;;;;5026511;28;82805;-77
2021/01/17 07:25:55;;;;;;;31.83;17.63;;;-3274.70;69.20;;;;;;5050783;28;82387;-81
2021/01/17 07:28:21;;;;;;;61.20;20.10;;;-3274.60;69.60;;;;;;5030789;28;84398;-78
2021/01/17 07:31:19;;;;;;;36.73;19.27;;;-3274.70;69.60;;;;;;5042769;28;83874;-79
2021/01/17 07:33:51;;;;;;;35.70;17.80;;;-3274.70;69.50;;;;;;5020012;28;83681;-80
2021/01/17 07:36:22;;;;;;;35.03;18.87;;;-3274.70;69.50;;;;;;5051009;28;82534;-78
2021/01/17 07:39:00;;;;;;;34.90;17.73;;;-3274.70;69.50;;;;;;5053114;28;83396;-77
2021/01/17 07:41:41;;;;;;;;;;;-3274.70;69.30;;;;;;5038884;28;82266;-77
2021/01/17 07:44:16;;;;;;;34.10;16.47;;;-3274.70;69.20;;;;;;5047381;28;76240;-77
2021/01/17 07:46:42;;;;;;;35.63;18.13;;;-3274.70;69.50;;;;;;5013754;22;82952;-77
2021/01/17 07:49:11;;;;;;;31.70;16.17;;;-3274.70;69.30;;;;;;4996744;28;85092;-78
2021/01/17 07:51:40;;;;;;;34.40;17.10;;;-3274.70;69.20;;;;;;4996234;28;85874;-77
2021/01/17 07:54:21;;;;;;;31.53;17.50;;;-3274.70;69.10;;;;;;4995035;28;85531;-77
2021/01/17 07:56:49;;;;;;;32.50;16.60;;;-3274.70;69.20;;;;;;4979306;28;82695;-77
2021/01/17 07:59:25;;;;;;;36.27;16.63;;;-3274.60;69.00;;;;;;5012467;28;82332;-76
2021/01/17 08:01:53;;;;;;;31.60;17.70;;;-3274.60;69.00;;;;;;4991141;28;83295;-76
2021/01/17 08:04:18;;;;;;;30.80;15.60;;;-3274.60;69.10;;;;;;4991021;28;83719;-74
2021/01/17 08:06:48;;;;;;;35.93;17.97;;;-3274.60;68.80;;;;;;4991298;28;85477;-75
2021/01/17 08:09:19;;;;;;;37.03;18.63;;;-3274.60;68.70;;;;;;4990379;28;84133;-75
2021/01/17 08:11:58;;;;;;;43.03;19.67;;;-3274.60;68.60;;;;;;4989603;28;83203;-74
2021/01/17 08:14:34;;;;;;;35.77;18.07;;;-3274.60;68.50;;;;;;5007314;28;83315;-73
2021/01/17 08:17:10;;;;;;;30.97;16.90;;;-3274.60;68.50;;;;;;4989083;28;83327;-74
2021/01/17 08:19:42;;;;;;;38.27;18.90;;;-3274.70;68.70;;;;;;4989354;28;83460;-75
2021/01/17 08:22:17;;;;;;;39.03;18.57;;;-3274.60;68.80;;;;;;4989952;28;83540;-76
2021/01/17 08:25:04;;;;;;;32.83;17.33;;;-3274.60;68.80;;;;;;4991121;28;83482;-74
2021/01/17 08:27:38;;;;;;;37.57;18.17;;;-3274.70;68.90;;;;;;4989982;28;83154;-75
2021/01/17 08:30:07;;;;;;;37.23;19.40;;;-3274.80;68.80;;;;;;4988809;28;83625;-74
2021/01/17 08:32:36;;;;;;;37.73;17.80;;;-3274.80;68.70;;;;;;5007061;28;83572;-77
2021/01/17 08:35:20;;;;;;;35.00;17.17;;;-3274.90;68.50;;;;;;4990489;28;83856;-71
2021/01/17 08:38:15;;;;;;;33.83;16.77;;;-3275.00;68.30;;;;;;4988301;28;83403;-63
2021/01/17 08:40:44;;;;;;;34.43;15.90;;;-3275.10;68.10;;;;;;4989742;28;83966;-64
2021/01/17 08:43:12;;;;;;;29.97;16.17;;;-3275.20;67.80;;;;;;5007493;28;83582;-73
2021/01/17 08:45:49;;;;;;;31.43;16.47;;;-3275.30;67.70;;;;;;4988329;28;83805;-67
2021/01/17 08:48:18;;;;;;;27.67;16.17;;;-3275.50;67.60;;;;;;5007230;28;83369;-72
2021/01/17 08:50:45;;;;;;;33.43;16.43;;;-3275.70;67.00;;;;;;4989188;28;85530;-74
2021/01/17 08:53:21;;;;;;;32.00;15.97;;;-3275.80;66.60;;;;;;4990530;28;85107;-64
2021/01/17 08:55:49;;;;;;;31.73;15.67;;;-3275.90;66.30;;;;;;4989148;28;83491;-62
2021/01/17 08:58:25;;;;;;;32.50;16.27;;;-3276.00;65.90;;;;;;4988464;28;82988;-63
2021/01/17 09:00:51;;;;;;;29.10;16.77;;;-3276.20;65.50;;;;;;4988548;28;83642;-63
2021/01/17 09:03:31;;;;;;;30.13;16.13;;;-3276.30;65.30;;;;;;4988216;28;83217;-63
2021/01/17 09:06:02;;;;;;;34.80;16.30;;;-3276.40;64.70;;;;;;4989235;28;86160;-65
2021/01/17 09:08:30;;;;;;;32.80;16.80;;;-3276.50;64.40;;;;;;4988904;28;83603;-69
2021/01/17 09:10:56;;;;;;;34.73;17.97;;;-3276.50;64.50;;;;;;4988448;28;82808;-72
2021/01/17 09:13:24;;;;;;;32.97;19.00;;;-3276.60;64.60;;;;;;5006307;28;83031;-72
2021/01/17 09:15:57;;;;;;;38.37;19.87;;;0.00;64.30;;;;;;4988017;28;85213;-64
2021/01/17 09:18:25;;;;;;;35.47;18.10;;;0.00;63.90;;;;;;4988130;28;84067;-67
2021/01/17 09:20:52;;;;;;;35.77;18.97;;;0.20;64.00;;;;;;4987727;28;85555;-62
2021/01/17 09:23:19;;;;;;;39.03;19.57;;;0.50;63.30;;;;;;4988277;28;83824;-71
2021/01/17 09:25:57;;;;;;;39.27;18.90;;;0.90;62.10;;;;;;4988076;28;85635;-64
2021/01/17 09:28:23;;;;;;;36.33;19.67;;;1.10;61.20;;;;;;5006514;28;83365;-66
2021/01/17 09:31:02;;;;;;;38.50;20.80;;;1.20;61.20;;;;;;4987520;28;85746;-69
2021/01/17 09:33:29;;;;;;;38.13;19.37;;;1.30;61.00;;;;;;4990133;28;83470;-67
2021/01/17 09:35:55;;;;;;;43.08;19.27;;;1.40;60.70;;;;;;4990525;28;85868;-77
2021/01/17 09:38:24;;;;;;;39.13;21.17;;;1.50;60.60;;;;;;5009847;28;83472;-64
2021/01/17 09:40:53;;;;;;;39.50;20.40;;;1.90;60.30;;;;;;4989193;28;82810;-66
2021/01/17 09:43:19;;;;;;;37.10;19.97;;;2.50;59.50;;;;;;4989254;28;84840;-66
2021/01/17 09:45:55;;;;;;;43.72;20.45;;;3.10;57.70;;;;;;5006669;28;83211;-63
2021/01/17 09:48:21;;;;;;;35.65;19.55;;;3.40;56.20;;;;;;4988279;28;85012;-69
2021/01/17 09:50:49;;;;;;;35.03;20.02;;;3.60;55.60;;;;;;4992328;28;82568;-67
2021/01/17 09:53:15;;;;;;;36.50;19.45;;;3.90;55.30;;;;;;4992392;28;83020;-69
2021/01/17 09:55:42;;;;;;;36.15;19.42;;;4.40;54.10;;;;;;4993502;28;85274;-69
2021/01/17 09:58:10;;;;;;;45.03;21.98;;;5.10;52.50;;;;;;5010641;28;82779;-72
2021/01/17 10:00:37;;;;;;;40.60;20.77;;;5.90;50.70;;;;;;4991339;28;82724;-63
2021/01/17 10:03:14;;;;;;;40.92;20.50;;;6.40;49.80;;;;;;4990902;28;84721;-64
2021/01/17 10:05:44;;;;;;;36.25;20.38;;;6.80;48.70;;;;;;5008882;28;82620;-60
2021/01/17 10:08:11;;;;;;;38.83;21.50;;;7.10;47.90;;;;;;4988465;28;84808;-60
2021/01/17 10:10:44;;;;;;;38.78;21.27;;;7.50;47.00;;;;;;4987449;28;83733;-60
2021/01/17 10:13:10;;;;;;;38.38;21.75;;;7.50;46.70;;;;;;4986836;28;83246;-60
2021/01/17 10:15:38;;;;;;;47.78;24.90;;;7.80;46.20;;;;;;4986855;28;86379;-60
2021/01/17 10:18:04;;;;;;;37.15;20.63;;;8.20;45.30;;;;;;4987222;28;82525;-64
2021/01/17 10:20:33;;;;;;;41.35;20.85;;;8.20;45.50;;;;;;4987660;28;84838;-63
2021/01/17 10:23:04;;;;;;;39.10;21.73;;;8.60;44.90;;;;;;4986465;28;83954;-59
2021/01/17 10:25:31;;;;;;;39.85;21.88;;;9.10;43.40;;;;;;5005524;28;82641;-60
2021/01/17 10:28:02;;;;;;;42.95;23.23;;;9.70;42.30;;;;;;4986756;28;82703;-61
2021/01/17 10:30:31;;;;;;;44.88;25.27;;;10.40;40.80;;;;;;4987246;28;85778;-63
2021/01/17 10:33:12;;;;;;;41.58;22.58;;;11.40;39.00;;;;;;4987380;28;83094;-60
2021/01/17 10:35:46;;;;;;;41.25;24.00;;;11.90;37.90;;;;;;5006852;28;82541;-61
2021/01/17 10:38:13;;;;;;;37.50;22.42;;;11.90;37.90;;;;;;5007254;28;83229;-62
2021/01/17 10:40:40;;;;;;;37.15;23.48;;;12.30;37.60;;;;;;4988167;28;86408;-64
2021/01/17 10:43:08;;;;;;;42.08;23.88;;;12.90;36.80;;;;;;5005795;28;82465;-64
2021/01/17 10:45:36;;;;;;;36.53;22.85;;;13.30;36.00;;;;;;4986565;28;83423;-61
2021/01/17 10:48:05;;;;;;;36.20;21.80;;;14.30;34.50;;;;;;5005282;28;83531;-64
2021/01/17 10:50:41;;;;;;;35.92;22.20;;;15.50;32.60;;;;;;4986656;28;82688;-59
2021/01/17 10:53:14;;;;;;;36.20;21.10;;;16.60;31.30;;;;;;4987211;28;85480;-65
2021/01/17 10:55:44;;;;;;;38.35;21.60;;;17.50;30.00;;;;;;4986822;28;86646;-58
2021/01/17 10:58:17;;;;;;;36.33;21.45;;;18.20;29.20;;;;;;4986427;28;82629;-59
2021/01/17 11:00:57;;;;;;;40.00;24.27;;;18.40;29.00;;;;;;4986421;28;83863;-58
2021/01/17 11:03:30;;;;;;;42.50;27.33;;;19.00;28.50;;;;;;4986681;28;83131;-60
2021/01/17 11:06:18;;;;;;;44.13;28.52;;;19.10;28.10;;;;;;4985844;28;83545;-60
2021/01/17 11:08:53;;;;;;;48.15;30.60;;;18.40;29.30;;;;;;4985841;28;85132;-61
2021/01/17 11:11:20;;;;;;;46.45;30.45;;;18.90;28.50;;;;;;5004161;28;83238;-59
2021/01/17 11:14:05;;;;;;;77.50;38.03;;;18.50;28.80;;;;;;4986294;28;85809;-59
2021/01/17 11:16:49;;;;;;;44.58;28.63;;;19.70;28.20;;;;;;4985522;28;85536;-60
2021/01/17 11:19:15;;;;;;;43.58;28.17;;;20.60;27.10;;;;;;5004063;28;82838;-59
2021/01/17 11:21:42;;;;;;;43.40;26.10;;;21.90;25.30;;;;;;4985811;28;83512;-61
2021/01/17 11:24:09;;;;;;;40.20;23.77;;;22.80;24.20;;;;;;4986060;28;86138;-60
2021/01/17 11:26:38;;;;;;;38.95;24.08;;;23.40;23.30;;;;;;4988124;28;82791;-60
2021/01/17 11:29:16;;;;;;;34.75;21.70;;;23.80;22.80;;;;;;5007838;28;82708;-60
2021/01/17 11:31:46;;;;;;;32.35;21.60;;;23.80;22.60;;;;;;5007550;28;83226;-59
2021/01/17 11:34:12;;;;;;;28.50;19.42;;;23.80;22.60;;;;;;5007540;28;83398;-61
2021/01/17 11:36:39;;;;;;;32.00;19.70;;;24.20;22.20;;;;;;4988945;28;84030;-61
2021/01/17 11:39:05;;;;;;;31.40;20.00;;;23.80;22.20;;;;;;5007298;28;82771;-60
2021/01/17 11:41:39;;;;;;;27.70;19.85;;;23.10;22.70;;;;;;4988879;28;83342;-61
2021/01/17 11:44:19;;;;;;;31.23;18.50;;;22.60;23.40;;;;;;4988833;28;83036;-60
2021/01/17 11:46:46;;;;;;;29.05;17.95;;;23.10;23.00;;;;;;4988359;28;83727;-60
2021/01/17 11:49:13;;;;;;;24.77;16.65;;;23.90;22.30;;;;;;4988333;28;83639;-58
2021/01/17 11:51:39;;;;;;;21.80;14.38;;;24.10;22.00;;;;;;5006495;28;83195;-60
2021/01/17 11:54:11;;;;;;;28.05;16.08;;;22.80;22.80;;;;;;5006270;28;83173;-62
2021/01/17 11:56:37;;;;;;;24.65;14.27;;;21.90;23.40;;;;;;5006454;28;83271;-62
2021/01/17 11:59:03;;;;;;;18.90;12.50;;;22.40;23.30;;;;;;5006353;28;82851;-61
2021/01/17 12:01:28;;;;;;;20.65;12.50;;;23.20;22.60;;;;;;4987841;28;82570;-60
2021/01/17 12:04:08;;;;;;;26.45;12.52;;;23.90;21.60;;;;;;4987733;28;84127;-61
2021/01/17 12:06:34;;;;;;;27.27;12.18;;;24.50;21.30;;;;;;4987682;28;83774;-61
2021/01/17 12:09:07;;;;;;;21.55;11.43;;;25.40;20.50;;;;;;4987767;28;83726;-64
2021/01/17 12:11:40;;;;;;;;;;;24.60;20.90;;;;;;5006023;28;84905;-59
2021/01/17 12:14:26;;;;;;;19.02;10.93;;;24.80;21.40;;;;;;4995626;28;83120;-59
2021/01/17 12:16:57;;;;;;;23.63;13.32;;;24.60;21.40;;;;;;4987619;28;85159;-60
2021/01/17 12:19:25;;;;;;;18.67;11.82;;;25.80;20.20;;;;;;5005812;28;83213;-61
2021/01/17 12:21:56;;;;;;;18.83;11.48;;;26.90;19.20;;;;;;5006130;28;82426;-62
2021/01/17 12:24:21;;;;;;;23.10;13.40;;;27.90;18.60;;;;;;4987618;28;82720;-63
2021/01/17 12:26:48;;;;;;;21.23;11.98;;;28.20;18.30;;;;;;4986762;28;83929;-60
2021/01/17 12:29:15;;;;;;;22.90;12.40;;;26.90;19.10;;;;;;5005897;28;82830;-63
2021/01/17 12:31:42;;;;;;;25.33;13.90;;;24.90;20.70;;;;;;4987896;28;85743;-61
2021/01/17 12:34:08;;;;;;;19.40;12.95;;;23.40;21.60;;;;;;5005667;28;83147;-60
2021/01/17 12:36:37;;;;;;;23.98;13.38;;;22.90;22.50;;;;;;4987669;28;84644;-60
2021/01/17 12:39:04;;;;;;;23.75;14.23;;;22.60;22.50;;;;;;5006577;28;82949;-59
2021/01/17 12:41:31;;;;;;;23.40;13.68;;;23.20;21.90;;;;;;4988044;28;83800;-60